Time;durP1;ratioP1;P1;durP2;ratioP2;P2;SDS_P1;SDS_P2;PMS_P1;PMS_P2;Temp;Humidity;BMP_temperature;BMP_pressure;BME280_temperature;BME280_humidity;BME280_pressure;Samples;Min_cycle;Max_cycle;Signal;HPM_P1;HPM_P2
2021/07/07 00:00:51;;;;;;;5.70;4.95;;;21.60;63.20;;;21.56;46.78;94524.50;5043903;28;20222;-81
2021/07/07 00:03:18;;;;;;;7.55;5.35;;;21.60;63.20;;;21.53;47.65;94518.84;5008875;28;20212;-82
2021/07/07 00:05:44;;;;;;;7.25;5.40;;;21.60;63.40;;;21.51;47.04;94523.69;4964540;28;20331;-81
2021/07/07 00:08:10;;;;;;;7.22;4.97;;;21.50;63.30;;;21.48;46.87;94522.34;4896257;28;20213;-81
2021/07/07 00:10:37;;;;;;;7.50;5.43;;;21.50;63.50;;;21.44;47.59;94526.63;4759752;29;20297;-81
2021/07/07 00:14:59;;;;;;;7.03;5.70;;;21.50;63.60;;;21.37;47.57;94526.09;5138061;27;20679;-81
2021/07/07 00:17:26;;;;;;;5.72;4.80;;;21.40;63.50;;;21.34;47.63;94532.00;5083233;28;20237;-81
2021/07/07 00:19:53;;;;;;;7.28;5.15;;;21.40;63.60;;;21.28;47.32;94526.63;5087242;28;20228;-81
2021/07/07 00:22:20;;;;;;;9.45;5.75;;;21.40;63.90;;;21.27;47.95;94529.56;5064435;28;20664;-81
2021/07/07 00:24:46;;;;;;;6.22;5.25;;;21.30;63.90;;;21.24;47.90;94530.13;5062467;28;20248;-80
2021/07/07 00:27:13;;;;;;;8.10;5.68;;;21.30;63.90;;;21.21;48.10;94528.00;4944084;28;20274;-81
2021/07/07 00:29:42;;;;;;;8.35;5.13;;;21.20;64.20;;;21.16;47.70;94523.44;4862304;29;20231;-81
2021/07/07 00:32:09;;;;;;;6.05;4.93;;;21.20;64.40;;;21.16;48.02;94528.00;4775086;29;20633;-81
2021/07/07 00:36:39;;;;;;;7.43;4.90;;;21.20;64.40;;;21.09;47.76;94533.59;5146855;27;21149;-81
2021/07/07 00:39:06;;;;;;;8.23;5.35;;;21.10;64.10;;;21.04;48.31;94534.38;5089014;28;20225;-81
2021/07/07 00:41:33;;;;;;;6.45;4.97;;;21.10;64.30;;;21.02;48.69;94543.72;5086840;28;20251;-81
2021/07/07 00:44:00;;;;;;;8.07;5.97;;;21.10;64.40;;;20.98;48.05;94556.78;5068515;28;20231;-81
2021/07/07 00:46:28;;;;;;;6.53;5.65;;;21.00;64.20;;;20.94;49.29;94577.84;4989262;28;20569;-81
2021/07/07 00:48:54;;;;;;;7.18;5.85;;;21.00;65.30;;;20.96;49.71;94561.59;4884749;29;20232;-81
2021/07/07 00:51:23;;;;;;;7.43;6.10;;;21.00;65.10;;;20.97;49.58;94559.72;4813160;29;20571;-81
2021/07/07 00:53:51;;;;;;;9.45;5.90;;;20.90;65.00;;;20.99;49.23;94557.59;4676269;30;20701;-81
2021/07/07 00:57:36;;;;;;;7.63;5.78;;;21.00;65.20;;;20.95;49.69;94560.00;5150468;27;20626;-81
2021/07/07 01:00:13;;;;;;;6.85;6.15;;;20.90;65.00;;;20.92;49.89;94561.31;5091117;28;20223;-81
2021/07/07 01:02:43;;;;;;;6.63;5.80;;;20.90;65.70;;;20.89;49.82;94571.72;5067333;28;20280;-81
2021/07/07 01:05:13;;;;;;;6.93;5.32;;;20.90;65.50;;;20.86;49.96;94562.41;5021304;28;20279;-81
2021/07/07 01:07:40;;;;;;;8.90;5.47;;;20.90;65.30;;;20.83;49.78;94554.91;4934298;29;20265;-80
2021/07/07 01:10:10;;;;;;;6.47;5.68;;;20.90;65.10;;;20.79;49.47;94551.97;4894209;29;20631;-81
2021/07/07 01:12:38;;;;;;;7.78;5.70;;;20.80;65.30;;;20.78;49.45;94568.25;4783232;29;20274;-80
2021/07/07 01:15:19;;;;;;;8.68;5.80;;;20.80;65.30;;;20.75;50.15;94569.56;4637258;30;20251;-80
2021/07/07 01:20:15;;;;;;;7.53;5.70;;;20.80;66.00;;;20.64;49.88;94567.91;5137529;27;20681;-81
2021/07/07 01:22:43;;;;;;;7.28;5.32;;;20.70;65.60;;;20.62;50.24;94567.38;5066219;28;20206;-81
2021/07/07 01:25:13;;;;;;;8.90;5.95;;;20.70;65.40;;;20.57;50.46;94565.50;5085737;28;20308;-81
2021/07/07 01:27:42;;;;;;;8.35;6.03;;;20.70;65.80;;;20.53;50.39;94567.09;5066033;28;20221;-81
2021/07/07 01:30:22;;;;;;;7.18;5.65;;;20.60;65.80;;;20.50;50.44;94570.28;5036113;28;20328;-81
2021/07/07 01:32:51;;;;;;;7.70;6.25;;;20.60;66.10;;;20.46;50.71;94571.88;4931160;28;20209;-81
2021/07/07 01:35:19;;;;;;;7.75;5.93;;;20.50;65.80;;;20.44;50.32;94582.00;4852967;29;20263;-80
2021/07/07 01:37:46;;;;;;;8.05;5.68;;;20.50;66.00;;;20.44;50.38;94582.00;4689408;29;20295;-81
2021/07/07 01:41:58;;;;;;;6.57;5.00;;;20.50;66.00;;;20.42;50.23;94592.91;5150431;27;20958;-81
2021/07/07 01:44:25;;;;;;;9.77;6.28;;;20.50;65.90;;;20.43;50.66;94594.53;5111592;27;20276;-81
2021/07/07 01:46:51;;;;;;;9.30;6.38;;;20.40;66.20;;;20.43;51.48;94591.84;5086894;28;20239;-80
2021/07/07 01:49:19;;;;;;;7.95;6.35;;;20.40;66.50;;;20.46;52.18;94609.19;5072840;28;20215;-80
2021/07/07 01:51:45;;;;;;;8.20;7.20;;;20.50;67.80;;;20.47;53.22;94608.91;5008937;28;20676;-81
2021/07/07 01:54:11;;;;;;;8.02;6.68;;;20.40;67.60;;;20.51;53.07;94611.03;4967562;28;20245;-80
2021/07/07 01:56:38;;;;;;;10.45;6.97;;;20.50;67.90;;;20.52;53.33;94612.63;4899310;28;20229;-80
2021/07/07 01:59:05;;;;;;;9.38;7.28;;;20.50;68.00;;;20.53;53.31;94616.91;4835243;29;20714;-81
2021/07/07 02:03:25;;;;;;;8.50;6.68;;;20.50;68.00;;;20.52;53.59;94617.97;5150423;27;20631;-80
2021/07/07 02:05:51;;;;;;;7.82;7.03;;;20.50;67.70;;;20.54;53.22;94621.97;5106150;28;20588;-80
2021/07/07 02:08:18;;;;;;;9.25;6.10;;;20.50;68.10;;;20.54;54.24;94621.19;5087224;28;20205;-80
2021/07/07 02:10:45;;;;;;;7.00;6.30;;;20.50;68.60;;;20.55;54.70;94625.44;5098140;28;20221;-80
2021/07/07 02:13:14;;;;;;;7.20;5.53;;;20.50;68.80;;;20.53;54.25;94616.91;5059354;28;20202;-80
2021/07/07 02:15:41;;;;;;;7.10;5.75;;;20.50;68.90;;;20.54;54.14;94619.31;4970283;28;20690;-80
2021/07/07 02:18:08;;;;;;;5.65;4.50;;;20.50;68.90;;;20.55;54.00;94626.25;4800399;29;20692;-80
2021/07/07 02:20:40;;;;;;;5.38;4.40;;;20.50;69.10;;;20.55;55.33;94625.44;4678066;30;20677;-80
2021/07/07 02:24:52;;;;;;;6.70;4.20;;;20.50;69.70;;;20.52;55.74;94634.78;5138093;27;20664;-80
2021/07/07 02:27:18;;;;;;;8.40;4.47;;;20.50;69.60;;;20.52;54.99;94639.28;5106243;28;20284;-81
2021/07/07 02:29:45;;;;;;;5.80;3.88;;;20.50;69.80;;;20.51;57.16;94649.16;5106646;28;20224;-79
2021/07/07 02:32:12;;;;;;;3.78;3.38;;;20.50;70.30;;;20.51;56.24;94635.81;5087819;28;20193;-80
2021/07/07 02:34:39;;;;;;;4.00;3.60;;;20.50;70.10;;;20.52;56.42;94641.94;5047129;28;20634;-80
2021/07/07 02:37:05;;;;;;;4.30;3.40;;;20.50;70.20;;;20.48;56.95;94650.47;4992754;28;20206;-80
2021/07/07 02:39:32;;;;;;;4.78;3.50;;;20.50;70.70;;;20.49;56.51;94645.94;4935541;28;20778;-80
2021/07/07 02:41:58;;;;;;;3.42;3.13;;;20.50;70.70;;;20.45;57.55;94642.19;4805134;29;20561;-80
2021/07/07 02:46:33;;;;;;;5.07;3.28;;;20.50;71.10;;;20.37;58.51;94640.81;5150190;27;20626;-80
2021/07/07 02:49:00;;;;;;;4.13;2.72;;;20.50;71.50;;;20.37;57.24;94645.34;5090529;28;20220;-80
2021/07/07 02:51:26;;;;;;;3.85;2.80;;;20.40;71.10;;;;;;5089074;28;20220;-80
2021/07/07 02:53:53;;;;;;;4.40;2.17;;;20.40;71.40;;;20.34;57.23;94649.34;5073672;28;20223;-80
2021/07/07 02:56:21;;;;;;;3.00;2.33;;;20.40;71.30;;;20.31;57.98;94656.00;5030373;28;20198;-80
2021/07/07 02:58:47;;;;;;;2.00;1.80;;;20.40;71.40;;;20.28;58.08;94645.84;4943373;28;20657;-81
2021/07/07 03:01:14;;;;;;;4.45;2.30;;;20.30;71.70;;;20.27;57.47;94654.09;4896811;29;20686;-80
2021/07/07 03:03:41;;;;;;;2.75;2.00;;;20.30;71.70;;;20.24;58.51;94654.63;4801835;29;20271;-80
2021/07/07 03:09:06;;;;;;;2.33;1.80;;;20.30;71.70;;;20.21;57.74;94663.13;5145520;27;20972;-80
2021/07/07 03:11:35;;;;;;;1.98;1.70;;;20.20;71.80;;;20.17;58.00;94657.53;5108140;28;20246;-80
2021/07/07 03:14:02;;;;;;;2.03;1.70;;;20.20;72.00;;;20.18;58.01;94655.66;5096592;28;20225;-80
2021/07/07 03:16:28;;;;;;;1.88;1.70;;;20.20;72.10;;;20.18;58.13;94650.31;5049748;28;20430;-79
2021/07/07 03:18:55;;;;;;;2.50;1.83;;;20.20;72.20;;;20.17;58.06;94644.22;5001386;28;20317;-80
2021/07/07 03:21:23;;;;;;;1.70;1.60;;;20.20;72.20;;;20.14;58.35;94658.84;4949763;28;20226;-80
2021/07/07 03:23:49;;;;;;;1.75;1.65;;;20.20;72.50;;;20.13;58.05;94656.44;4872774;29;20332;-80
2021/07/07 03:26:16;;;;;;;1.80;1.70;;;20.10;72.30;;;20.13;59.48;94653.78;4819502;29;20223;-80
2021/07/07 03:31:19;;;;;;;2.53;1.90;;;20.10;73.00;;;20.09;59.38;94656.16;5130942;27;20556;-80
2021/07/07 03:33:46;;;;;;;1.50;1.40;;;20.10;73.20;;;20.10;59.08;94659.59;5085263;28;20285;-80
2021/07/07 03:36:13;;;;;;;1.50;1.40;;;20.10;73.10;;;20.07;58.99;94658.28;5081008;28;20262;-80
2021/07/07 03:38:39;;;;;;;1.70;1.40;;;20.10;73.10;;;20.08;58.93;94667.88;5079222;28;20277;-80
2021/07/07 03:41:06;;;;;;;2.28;1.60;;;20.10;73.00;;;20.10;58.47;94659.59;5023466;28;20214;-80
2021/07/07 03:43:32;;;;;;;1.70;1.60;;;20.10;73.00;;;20.10;58.04;94671.06;4972439;28;20313;-80
2021/07/07 03:45:59;;;;;;;2.05;1.67;;;20.10;72.90;;;20.12;58.34;94676.94;4876432;29;20691;-80
2021/07/07 03:48:25;;;;;;;1.70;1.42;;;20.10;73.00;;;20.16;58.56;94679.88;4749539;29;20221;-80
2021/07/07 03:52:31;;;;;;;1.50;1.40;;;20.10;73.10;;;20.23;59.18;94687.66;5149830;27;20626;-80
2021/07/07 03:54:58;;;;;;;1.60;1.50;;;20.10;73.30;;;20.27;59.00;94692.19;5083690;28;20229;-80
2021/07/07 03:57:24;;;;;;;1.70;1.60;;;20.20;73.40;;;20.29;59.05;94692.72;5066801;28;20217;-81
2021/07/07 03:59:51;;;;;;;1.52;1.42;;;20.20;73.50;;;20.36;59.29;94697.84;5061627;28;20318;-80
2021/07/07 04:02:20;;;;;;;1.63;1.45;;;20.20;73.80;;;20.42;58.67;94698.66;5056555;28;20258;-81
2021/07/07 04:04:47;;;;;;;2.22;1.73;;;20.30;73.60;;;20.49;59.09;94707.22;4963506;28;20281;-81
2021/07/07 04:07:13;;;;;;;1.67;1.58;;;20.30;73.80;;;20.55;58.93;94708.03;4854203;29;20237;-80
2021/07/07 04:09:40;;;;;;;1.83;1.58;;;20.40;73.80;;;20.60;58.91;94713.41;4733214;29;20234;-80
2021/07/07 04:14:42;;;;;;;2.03;1.73;;;20.40;73.60;;;20.78;59.30;94720.16;5139612;27;20983;-80
2021/07/07 04:17:08;;;;;;;2.65;1.80;;;20.50;74.10;;;20.82;59.16;94721.22;5093085;28;20303;-79
2021/07/07 04:19:36;;;;;;;1.65;1.55;;;20.60;74.10;;;20.85;58.44;94722.56;5078237;28;20691;-80
2021/07/07 04:22:03;;;;;;;1.70;1.60;;;20.60;73.80;;;20.92;58.86;94723.13;5059405;28;20203;-80
2021/07/07 04:24:30;;;;;;;1.70;1.60;;;20.70;73.70;;;20.98;58.44;94729.28;5004354;28;20225;-81
2021/07/07 04:26:56;;;;;;;1.63;1.52;;;20.70;73.70;;;21.04;58.74;94731.69;4911441;29;20212;-81
2021/07/07 04:29:23;;;;;;;1.50;1.40;;;20.80;73.70;;;21.09;58.74;94745.06;4823737;29;20763;-80
2021/07/07 04:31:51;;;;;;;1.60;1.40;;;20.80;73.70;;;21.14;58.95;94757.63;4623315;30;20672;-81
2021/07/07 04:36:40;;;;;;;1.70;1.60;;;20.90;73.70;;;21.21;57.88;94741.38;5150230;27;20954;-80
2021/07/07 04:39:08;;;;;;;1.52;1.42;;;21.00;73.50;;;21.27;58.22;94743.75;5099193;28;20231;-81
2021/07/07 04:41:35;;;;;;;2.00;1.40;;;21.10;73.60;;;21.32;57.83;94745.66;5088121;28;20220;-81
2021/07/07 04:44:03;;;;;;;1.50;1.40;;;21.10;73.40;;;21.37;57.88;94750.19;5090313;27;20222;-81
2021/07/07 04:46:29;;;;;;;1.85;1.40;;;21.10;73.40;;;21.42;57.62;94756.34;5080160;28;20207;-80
2021/07/07 04:48:56;;;;;;;2.42;1.40;;;21.10;73.20;;;21.45;57.79;94760.34;5047028;28;20277;-81
2021/07/07 04:51:23;;;;;;;1.70;1.48;;;21.20;73.20;;;21.49;57.85;94758.75;4953297;28;20605;-80
2021/07/07 04:53:49;;;;;;;1.45;1.35;;;21.20;73.30;;;21.51;57.81;94756.63;4760069;29;20768;-80
2021/07/07 04:58:07;;;;;;;1.70;1.60;;;21.30;73.20;;;21.57;57.34;94774.28;5149530;27;20655;-82
2021/07/07 05:00:34;;;;;;;2.20;1.67;;;21.30;73.00;;;21.64;57.56;94784.72;5108760;27;20245;-81
2021/07/07 05:03:01;;;;;;;1.65;1.55;;;21.40;73.10;;;21.67;57.51;94773.50;5079299;28;20208;-80
2021/07/07 05:05:27;;;;;;;1.92;1.40;;;21.50;73.30;;;21.71;58.07;94782.56;5068053;28;20219;-80
2021/07/07 05:08:01;;;;;;;1.73;1.48;;;21.50;73.30;;;21.75;57.90;94786.31;4994898;28;20234;-81
2021/07/07 05:10:30;;;;;;;1.90;1.70;;;21.50;73.10;;;21.77;57.97;94780.72;4990569;28;20222;-82
2021/07/07 05:12:58;;;;;;;4.22;1.67;;;21.60;73.40;;;21.82;57.73;94774.56;4863568;29;20635;-81
2021/07/07 05:15:25;;;;;;;1.50;1.40;;;21.60;73.30;;;21.85;57.42;94790.88;4748244;30;20237;-82
2021/07/07 05:19:46;;;;;;;1.90;1.70;;;21.60;73.30;;;21.86;57.67;94786.31;5138824;27;20660;-79
2021/07/07 05:22:13;;;;;;;1.80;1.55;;;21.70;73.10;;;21.90;57.38;94798.09;5087802;28;20195;-79
2021/07/07 05:24:39;;;;;;;1.60;1.50;;;21.70;73.10;;;21.95;57.19;94798.09;5070610;28;20697;-79
2021/07/07 05:27:06;;;;;;;1.88;1.77;;;21.70;73.00;;;21.96;57.33;94799.69;5035241;28;20231;-79
2021/07/07 05:29:32;;;;;;;1.83;1.73;;;21.70;72.90;;;22.00;57.39;94811.44;4962661;28;20227;-79
2021/07/07 05:31:59;;;;;;;1.98;1.70;;;21.70;73.00;;;22.03;57.20;94812.75;4935837;28;20305;-79
2021/07/07 05:34:26;;;;;;;1.80;1.60;;;21.80;72.90;;;22.05;57.09;94821.31;4898945;29;20328;-79
2021/07/07 05:36:52;;;;;;;1.50;1.40;;;21.80;72.90;;;22.04;57.01;94820.50;4780208;29;20706;-80
2021/07/07 05:41:13;;;;;;;2.03;1.83;;;21.80;72.90;;;22.02;56.99;94822.66;5150181;27;20648;-80
2021/07/07 05:43:40;;;;;;;2.40;1.92;;;21.90;72.90;;;22.01;57.90;94831.75;5110385;27;20204;-80
2021/07/07 05:46:07;;;;;;;2.30;1.90;;;21.90;73.10;;;22.00;57.85;94838.13;5094053;28;20216;-79
2021/07/07 05:48:34;;;;;;;1.83;1.73;;;21.90;73.20;;;21.99;58.28;94849.09;5092521;28;20206;-80
2021/07/07 05:51:01;;;;;;;2.10;1.90;;;21.90;73.20;;;21.98;57.90;94852.81;5080131;28;20684;-80
2021/07/07 05:53:28;;;;;;;1.95;1.77;;;21.90;73.20;;;21.98;57.53;94860.84;5007225;28;20205;-80
2021/07/07 05:55:55;;;;;;;1.83;1.70;;;21.90;73.10;;;21.98;57.37;94853.63;4914860;28;20750;-79
2021/07/07 05:58:21;;;;;;;2.20;1.67;;;21.80;73.00;;;22.00;57.44;94853.38;4739733;29;20288;-80
2021/07/07 06:03:24;;;;;;;1.70;1.60;;;21.80;73.00;;;22.03;57.21;94856.31;5143236;27;20559;-79
2021/07/07 06:05:50;;;;;;;2.17;1.98;;;21.80;73.10;;;22.05;57.42;94861.38;5110486;28;20286;-80
2021/07/07 06:08:17;;;;;;;2.85;2.00;;;21.80;73.10;;;22.06;57.94;94855.78;5088236;28;20292;-79
2021/07/07 06:10:45;;;;;;;1.83;1.70;;;21.90;73.10;;;22.10;57.32;94857.91;5053141;28;20239;-80
2021/07/07 06:13:12;;;;;;;1.65;1.55;;;21.90;74.00;;;22.12;57.22;94859.25;5040686;28;20224;-80
2021/07/07 06:15:40;;;;;;;1.60;1.50;;;21.90;73.10;;;22.16;57.16;94862.19;4934234;28;20244;-80
2021/07/07 06:18:07;;;;;;;1.92;1.83;;;21.90;73.10;;;22.20;57.27;94856.06;4903902;29;20214;-78
2021/07/07 06:20:35;;;;;;;1.65;1.55;;;21.90;73.10;;;22.25;56.98;94857.91;4845072;29;20286;-80
2021/07/07 06:25:36;;;;;;;2.20;2.00;;;22.00;73.20;;;22.36;57.09;94862.22;5132652;27;20575;-79
2021/07/07 06:28:03;;;;;;;2.05;1.88;;;22.00;73.10;;;22.38;57.10;94869.97;5087823;28;20267;-79
2021/07/07 06:30:30;;;;;;;2.10;1.90;;;22.10;73.10;;;22.38;56.75;94881.47;5118464;28;20236;-81
2021/07/07 06:33:00;;;;;;;2.15;1.90;;;22.10;73.00;;;22.43;57.08;94879.88;5091685;28;20198;-80
2021/07/07 06:35:30;;;;;;;2.40;2.03;;;22.10;73.20;;;22.47;56.82;94881.75;5082649;28;20224;-79
2021/07/07 06:37:57;;;;;;;4.10;2.40;;;22.20;73.20;;;22.47;57.22;94902.31;5025376;28;20206;-79
2021/07/07 06:40:24;;;;;;;2.45;2.22;;;22.20;73.10;;;22.42;57.13;94903.09;4930267;28;20586;-80
2021/07/07 06:42:51;;;;;;;3.05;2.67;;;22.20;73.00;;;22.41;56.93;94914.06;4770201;29;20215;-79
2021/07/07 06:47:31;;;;;;;2.50;2.30;;;22.20;72.80;;;22.34;57.32;94922.34;5131928;27;20559;-79
2021/07/07 06:49:59;;;;;;;2.42;2.22;;;22.20;73.70;;;22.33;57.21;94921.50;5088445;28;20224;-79
2021/07/07 06:52:26;;;;;;;3.97;2.70;;;22.20;72.90;;;22.34;57.37;94920.44;5109423;28;20217;-81
2021/07/07 06:54:55;;;;;;;3.03;2.50;;;22.20;72.90;;;22.36;57.38;94914.84;5104718;28;20632;-80
2021/07/07 06:57:22;;;;;;;2.63;2.40;;;22.20;72.90;;;22.36;57.25;94917.50;5091519;28;20203;-79
2021/07/07 06:59:48;;;;;;;2.55;2.35;;;22.20;72.90;;;22.35;56.98;94924.72;4925201;28;20239;-79
2021/07/07 07:02:15;;;;;;;2.58;2.15;;;22.20;73.00;;;22.37;57.73;94946.66;4896339;29;20779;-80
2021/07/07 07:04:42;;;;;;;2.60;2.40;;;22.20;73.00;;;22.38;57.08;94942.13;4799335;29;20280;-79
2021/07/07 07:09:46;;;;;;;2.20;2.00;;;22.20;72.90;;;22.42;57.18;94945.06;5139739;27;20656;-80
2021/07/07 07:12:13;;;;;;;2.42;1.80;;;22.20;72.90;;;22.43;56.92;94949.34;5124744;28;20679;-79
2021/07/07 07:14:39;;;;;;;3.25;2.15;;;22.20;72.90;;;22.43;57.31;94949.34;5086124;28;20284;-79
2021/07/07 07:17:05;;;;;;;2.00;1.90;;;22.20;72.90;;;22.42;57.12;94951.22;5106835;28;20573;-79
2021/07/07 07:19:32;;;;;;;2.25;1.83;;;22.20;72.80;;;22.41;57.17;94949.63;5089026;28;20294;-79
2021/07/07 07:21:58;;;;;;;1.83;1.73;;;22.20;72.80;;;22.39;57.01;94951.75;5061766;28;20209;-79
2021/07/07 07:24:30;;;;;;;2.67;1.85;;;22.20;72.70;;;22.43;57.05;94960.06;4983880;28;20873;-81
2021/07/07 07:26:58;;;;;;;2.33;2.10;;;22.20;72.70;;;22.37;57.13;94965.38;4939098;28;20219;-79
2021/07/07 07:31:13;;;;;;;2.70;2.50;;;22.20;72.80;;;22.30;57.12;94964.00;5150297;27;21096;-80
2021/07/07 07:33:40;;;;;;;2.70;2.40;;;22.20;72.70;;;22.29;57.44;94968.56;5110311;27;20634;-80
2021/07/07 07:36:24;;;;;;;2.70;2.50;;;22.20;72.70;;;22.26;57.10;94963.72;5076428;28;20351;-79
2021/07/07 07:38:59;;;;;;;4.70;2.95;;;22.20;72.70;;;22.28;56.89;94974.97;5076638;28;20284;-80
2021/07/07 07:41:33;;;;;;;3.90;3.08;;;22.10;72.60;;;22.26;57.16;94993.09;5054264;28;20326;-80
2021/07/07 07:44:00;;;;;;;3.10;2.90;;;22.10;72.60;;;22.22;57.36;94984.81;5038910;28;20231;-79
2021/07/07 07:46:30;;;;;;;3.22;2.92;;;22.10;72.70;;;22.22;57.04;94984.81;4875829;28;20208;-79
2021/07/07 07:48:59;;;;;;;2.53;2.33;;;22.10;72.70;;;22.21;57.11;94985.09;4692151;29;20252;-80
2021/07/07 07:51:33;;;;;;;2.90;2.60;;;22.10;72.70;;;22.22;56.97;94994.72;5150328;27;20835;-80
2021/07/07 07:53:59;;;;;;;3.10;2.63;;;22.10;72.70;;;22.23;57.33;94988.31;5108006;28;20251;-80
2021/07/07 07:56:26;;;;;;;2.97;2.60;;;22.10;72.80;;;22.26;56.74;94990.44;5108590;28;20300;-79
2021/07/07 07:58:53;;;;;;;2.88;2.67;;;22.10;72.80;;;22.25;57.15;94988.81;5094377;28;20736;-79
2021/07/07 08:01:19;;;;;;;3.10;2.50;;;22.10;72.80;;;22.27;57.14;94996.59;5082314;28;20244;-80
2021/07/07 08:03:46;;;;;;;3.67;2.30;;;22.10;72.70;;;22.28;56.84;94993.66;5031243;28;20751;-79
2021/07/07 08:06:12;;;;;;;2.38;2.13;;;22.10;72.70;;;22.30;56.95;94994.22;4983506;28;20293;-80
2021/07/07 08:08:39;;;;;;;2.53;2.33;;;22.10;72.70;;;22.30;56.93;94998.72;4821423;29;20321;-79
2021/07/07 08:11:17;;;;;;;3.65;2.58;;;22.10;72.70;;;22.34;56.53;94999.81;5150375;27;20371;-80
2021/07/07 08:13:44;;;;;;;2.33;2.13;;;22.10;72.80;;;22.35;57.25;94996.88;5144120;27;20201;-80
2021/07/07 08:16:10;;;;;;;2.88;2.50;;;22.10;72.80;;;22.37;57.09;95002.78;5097645;27;20289;-79
2021/07/07 08:18:37;;;;;;;3.72;2.72;;;22.10;72.70;;;22.37;57.00;95002.78;5101050;28;20313;-79
2021/07/07 08:21:04;;;;;;;3.22;2.80;;;22.10;72.70;;;22.41;56.83;94992.41;5081164;28;20653;-80
2021/07/07 08:23:31;;;;;;;3.00;2.70;;;22.20;72.90;;;22.51;56.75;95000.41;5021805;28;20298;-81
2021/07/07 08:25:57;;;;;;;2.67;2.47;;;22.20;72.90;;;22.57;56.98;95003.09;5012859;28;20673;-79
2021/07/07 08:28:24;;;;;;;3.75;2.40;;;22.20;72.90;;;22.61;56.73;95001.50;4981586;28;20672;-79
2021/07/07 08:34:08;;;;;;;2.95;2.28;;;22.30;72.70;;;22.68;56.32;95010.88;5125583;27;20317;-80
2021/07/07 08:36:35;;;;;;;3.05;2.75;;;22.30;72.80;;;22.73;56.48;95020.75;5067500;28;20208;-80
2021/07/07 08:39:03;;;;;;;4.05;2.67;;;22.40;72.70;;;22.73;56.20;95023.44;5101535;28;20230;-80
2021/07/07 08:41:32;;;;;;;2.67;2.47;;;22.40;72.60;;;22.74;56.24;95033.06;5064832;28;20210;-80
2021/07/07 08:43:59;;;;;;;2.85;2.65;;;22.40;72.60;;;22.75;56.48;95041.88;5022896;28;20255;-80
2021/07/07 08:46:26;;;;;;;5.28;2.25;;;22.50;72.60;;;22.79;56.55;95051.78;4995119;28;20695;-80
2021/07/07 08:48:53;;;;;;;3.60;2.40;;;22.50;72.60;;;22.83;56.39;95047.50;4875298;29;20364;-81
2021/07/07 08:51:19;;;;;;;3.58;3.28;;;22.50;72.70;;;22.90;56.22;95051.78;4751651;29;20761;-80
2021/07/07 08:55:34;;;;;;;3.88;3.25;;;22.50;72.50;;;22.92;55.81;95063.03;5133033;27;20662;-80
2021/07/07 08:58:02;;;;;;;3.92;3.42;;;22.60;72.50;;;22.96;56.30;95075.59;5091819;28;20207;-80
2021/07/07 09:00:34;;;;;;;3.03;2.72;;;22.60;72.30;;;22.98;55.91;95080.69;5102509;28;20559;-80
2021/07/07 09:03:03;;;;;;;3.63;3.00;;;22.70;72.30;;;22.99;55.72;95090.31;5080974;28;20669;-80
2021/07/07 09:05:53;;;;;;;2.78;2.53;;;22.70;72.30;;;22.95;55.96;95094.56;5048880;28;20251;-79
2021/07/07 09:08:33;;;;;;;3.47;2.80;;;22.70;72.20;;;22.93;55.52;95102.09;4930058;28;20285;-79
2021/07/07 09:11:26;;;;;;;2.25;2.05;;;22.70;71.90;;;22.89;56.19;95098.31;4876632;29;20217;-80
2021/07/07 09:15:17;;;;;;;2.00;1.90;;;22.70;72.20;;;22.83;55.98;95100.19;5134735;27;20594;-80
2021/07/07 09:17:48;;;;;;;2.13;1.80;;;22.70;71.90;;;22.81;55.85;95100.47;5091741;28;20228;-80
2021/07/07 09:20:26;;;;;;;2.28;1.70;;;22.70;71.80;;;22.80;56.04;95108.72;5078181;28;20265;-79
2021/07/07 09:23:14;;;;;;;1.92;1.75;;;22.70;71.70;;;22.76;55.58;95107.66;5018858;28;20202;-80
2021/07/07 09:25:52;;;;;;;1.73;1.55;;;22.60;71.80;;;22.79;55.54;95101.78;4996352;28;20234;-79
2021/07/07 09:28:28;;;;;;;1.98;1.50;;;22.60;71.70;;;22.82;55.84;95104.72;4991195;28;20211;-84
2021/07/07 09:31:23;;;;;;;1.60;1.50;;;22.60;72.00;;;22.89;55.84;95096.47;4828713;29;20254;-80
2021/07/07 09:33:49;;;;;;;2.28;1.60;;;22.60;72.30;;;23.02;56.13;95097.78;4477922;31;20255;-83
2021/07/07 09:36:27;;;;;;;1.50;1.40;;;22.70;72.40;;;23.16;56.01;95098.91;5150272;27;20316;-80
2021/07/07 09:38:54;;;;;;;2.10;1.45;;;22.70;72.50;;;23.28;55.69;95090.63;5108545;27;20261;-80
2021/07/07 09:41:21;;;;;;;1.45;1.27;;;22.80;72.50;;;23.40;55.48;95108.28;5076797;27;20217;-79
2021/07/07 09:43:54;;;;;;;1.00;1.00;;;22.90;72.40;;;23.52;55.45;95108.81;5108149;28;20562;-80
2021/07/07 09:46:23;;;;;;;0.90;0.90;;;22.90;72.30;;;23.68;55.34;95112.31;5073745;28;20259;-81
2021/07/07 09:48:52;;;;;;;1.15;1.15;;;23.10;73.50;;;23.95;55.51;95106.63;5020495;28;20320;-80
2021/07/07 09:51:20;;;;;;;0.90;0.90;;;23.20;73.00;;;24.27;55.11;95107.34;4911733;28;20336;-79
2021/07/07 09:53:47;;;;;;;1.35;1.00;;;23.40;72.90;;;24.61;54.85;95104.00;4815403;29;20216;-84
2021/07/07 09:58:46;;;;;;;1.05;1.00;;;23.60;73.20;;;25.20;54.27;95102.28;5147588;27;20307;-80
2021/07/07 10:01:13;;;;;;;1.65;1.00;;;24.10;72.70;;;25.39;53.28;95107.81;5108407;28;20638;-80
2021/07/07 10:03:39;;;;;;;1.10;1.00;;;24.30;71.90;;;25.53;52.42;95110.66;5092538;28;20849;-81
2021/07/07 10:06:07;;;;;;;0.77;0.77;;;24.50;71.20;;;25.62;52.38;95101.97;5089324;28;20263;-80
2021/07/07 10:08:35;;;;;;;0.70;0.70;;;24.70;70.90;;;25.72;52.75;95107.28;5020215;28;20379;-80
2021/07/07 10:11:02;;;;;;;1.42;0.90;;;24.90;70.80;;;25.84;51.89;95106.88;4996755;28;20245;-79
2021/07/07 10:13:30;;;;;;;0.80;0.80;;;25.00;70.50;;;25.92;51.32;95111.63;5013570;28;20294;-79
2021/07/07 10:15:56;;;;;;;0.90;0.90;;;25.10;69.90;;;25.91;51.35;95110.03;4929981;28;20779;-80
2021/07/07 10:21:01;;;;;;;0.80;0.73;;;25.30;69.50;;;25.97;51.65;95116.16;5139963;27;20659;-81
2021/07/07 10:23:28;;;;;;;1.10;1.00;;;25.40;69.40;;;26.04;51.20;95122.00;5108166;28;20225;-81
2021/07/07 10:26:00;;;;;;;1.00;0.90;;;25.40;69.20;;;26.11;50.98;95124.38;5100784;28;20578;-80
2021/07/07 10:28:28;;;;;;;3.47;1.00;;;25.50;68.80;;;26.16;51.10;95127.03;5083943;28;20683;-79
2021/07/07 10:30:58;;;;;;;1.50;1.10;;;25.60;68.80;;;26.19;50.89;95116.47;5051688;28;20310;-80
2021/07/07 10:33:33;;;;;;;1.00;0.88;;;25.70;68.30;;;26.16;50.36;95124.34;5010966;28;20695;-81
2021/07/07 10:36:15;;;;;;;1.05;0.95;;;25.70;67.80;;;26.12;50.20;95126.78;4905290;29;20235;-80
2021/07/07 10:39:05;;;;;;;0.80;0.80;;;25.70;67.80;;;26.18;50.74;95132.88;4807750;29;20589;-80
2021/07/07 10:41:54;;;;;;;0.88;0.88;;;25.80;68.10;;;26.27;50.28;95133.06;5145923;27;20835;-81
2021/07/07 10:44:27;;;;;;;1.85;1.23;;;25.80;67.90;;;26.34;50.09;95133.50;5071941;27;20312;-81
2021/07/07 10:47:02;;;;;;;0.68;0.68;;;25.90;67.90;;;26.39;49.60;95133.47;5102324;28;20730;-80
2021/07/07 10:49:43;;;;;;;0.82;0.80;;;25.90;67.80;;;26.45;49.72;95137.72;5088776;28;20229;-79
2021/07/07 10:52:14;;;;;;;0.82;0.82;;;26.00;68.00;;;26.47;49.72;95132.81;5069026;28;20298;-81
2021/07/07 10:54:53;;;;;;;0.80;0.80;;;26.00;68.00;;;26.39;49.04;95146.94;5039063;28;20343;-80
2021/07/07 10:57:26;;;;;;;5.38;0.93;;;26.00;67.10;;;26.26;49.11;95140.34;4971906;28;20268;-80
2021/07/07 11:00:40;;;;;;;1.00;0.93;;;26.00;66.90;;;26.18;49.75;95138.28;5134753;27;20739;-80
2021/07/07 11:03:32;;;;;;;1.42;1.30;;;25.90;67.10;;;26.07;49.51;95140.25;5055951;28;20208;-81
2021/07/07 11:06:20;;;;;;;1.00;0.93;;;25.90;67.10;;;25.97;49.23;95151.09;5089593;28;20246;-79
2021/07/07 11:08:49;;;;;;;1.15;0.80;;;25.80;66.70;;;25.75;49.66;95149.69;5053920;28;20223;-80
2021/07/07 11:11:24;;;;;;;0.90;0.90;;;25.70;66.60;;;25.53;49.52;95142.09;5012809;28;20545;-80
2021/07/07 11:13:52;;;;;;;0.95;0.95;;;25.60;66.70;;;25.35;50.04;95147.03;4966286;28;20640;-80
2021/07/07 11:16:24;;;;;;;0.90;0.90;;;25.40;67.00;;;25.26;50.32;95148.69;4824717;29;20313;-80
2021/07/07 11:18:52;;;;;;;0.90;0.90;;;25.30;67.20;;;25.19;50.52;95162.41;4646670;30;20264;-80
2021/07/07 11:21:30;;;;;;;0.73;0.73;;;25.20;67.50;;;25.14;50.81;95149.03;5149077;27;20314;-80
2021/07/07 11:23:56;;;;;;;0.73;0.73;;;25.10;67.40;;;25.15;50.65;95155.22;5086172;28;20784;-80